createdAt,value
2023-11-14T00:00:13.577Z,9.29
2023-11-14T00:01:16.338Z,9.29
2023-11-14T00:02:19.153Z,9.29
2023-11-14T00:03:22.479Z,9.30
2023-11-14T00:04:25.535Z,9.30
2023-11-14T00:05:28.400Z,9.30
2023-11-14T00:06:31.175Z,9.31
2023-11-14T00:07:34.010Z,9.31
2023-11-14T00:08:36.709Z,9.31
2023-11-14T00:09:39.486Z,9.31
2023-11-14T00:10:42.376Z,9.32
2023-11-14T00:11:45.192Z,9.32
2023-11-14T00:12:47.963Z,9.33
2023-11-14T00:13:50.795Z,9.34
2023-11-14T00:14:54.265Z,9.34
2023-11-14T00:15:57.068Z,9.35
2023-11-14T00:17:00.054Z,9.35
2023-11-14T00:18:02.967Z,9.36
2023-11-14T00:19:06.148Z,9.36
2023-11-14T00:20:09.437Z,9.36
2023-11-14T00:21:13.017Z,9.35
2023-11-14T00:22:15.815Z,9.35
2023-11-14T00:23:21.539Z,9.34
2023-11-14T00:24:24.263Z,9.34
2023-11-14T00:25:31.320Z,9.34
2023-11-14T00:26:34.199Z,9.34
2023-11-14T00:27:36.965Z,9.34
2023-11-14T00:28:39.768Z,9.34
2023-11-14T00:29:42.965Z,9.35
2023-11-14T00:30:45.768Z,9.35
2023-11-14T00:31:49.045Z,9.34
2023-11-14T00:32:51.949Z,9.33
2023-11-14T00:33:54.781Z,9.32
2023-11-14T00:34:57.535Z,9.32
2023-11-14T00:36:00.988Z,9.32
2023-11-14T00:37:03.902Z,9.32
2023-11-14T00:38:06.835Z,9.31
2023-11-14T00:39:10.294Z,9.30
2023-11-14T00:40:13.435Z,9.30
2023-11-14T00:41:16.138Z,9.30
2023-11-14T00:42:18.956Z,9.29
2023-11-14T00:43:21.729Z,9.28
2023-11-14T00:44:25.433Z,9.28
2023-11-14T00:45:29.444Z,9.27
2023-11-14T00:46:32.369Z,9.27
2023-11-14T00:47:36.580Z,9.27
2023-11-14T00:48:40.299Z,9.27
2023-11-14T00:49:42.968Z,9.26
2023-11-14T00:50:45.734Z,9.26
2023-11-14T00:51:48.488Z,9.26
2023-11-14T00:52:52.085Z,9.26
2023-11-14T00:53:57.371Z,9.26
2023-11-14T00:55:00.117Z,9.26
2023-11-14T00:56:02.924Z,9.27
2023-11-14T00:57:05.873Z,9.27
2023-11-14T00:58:08.651Z,9.27
2023-11-14T00:59:11.517Z,9.27
2023-11-14T01:00:14.927Z,9.28
2023-11-14T01:01:20.837Z,9.28
2023-11-14T01:02:24.398Z,9.28
2023-11-14T01:03:28.005Z,9.29
2023-11-14T01:04:31.407Z,9.30
2023-11-14T01:05:34.105Z,9.31
2023-11-14T01:06:37.020Z,9.32
2023-11-14T01:07:40.986Z,9.33
2023-11-14T01:08:44.449Z,9.34
2023-11-14T01:09:47.183Z,9.34
2023-11-14T01:10:49.862Z,9.35
2023-11-14T01:11:52.637Z,9.35
2023-11-14T01:13:00.442Z,9.36
2023-11-14T01:14:06.649Z,9.36
2023-11-14T01:15:09.916Z,9.37
2023-11-14T01:16:14.252Z,9.37
2023-11-14T01:17:17.147Z,9.37
2023-11-14T01:18:22.818Z,9.37
2023-11-14T01:19:25.598Z,9.38
2023-11-14T01:20:28.356Z,9.38
2023-11-14T01:21:32.479Z,9.38
2023-11-14T01:22:35.325Z,9.39
2023-11-14T01:23:38.212Z,9.39
2023-11-14T01:24:41.033Z,9.39
2023-11-14T01:25:47.003Z,9.39
2023-11-14T01:26:49.834Z,9.39
2023-11-14T01:27:52.556Z,9.40
2023-11-14T01:28:55.408Z,9.40
2023-11-14T01:29:58.078Z,9.41
2023-11-14T01:31:00.850Z,9.42
2023-11-14T01:32:03.669Z,9.43
2023-11-14T01:33:06.840Z,9.44
2023-11-14T01:34:09.727Z,9.46
2023-11-14T01:35:12.552Z,9.47
2023-11-14T01:36:15.318Z,9.48
2023-11-14T01:37:18.421Z,9.49
2023-11-14T01:38:23.960Z,9.50
2023-11-14T01:39:26.681Z,9.50
2023-11-14T01:40:29.421Z,9.51
2023-11-14T01:41:32.218Z,9.51
2023-11-14T01:42:34.991Z,9.52
2023-11-14T01:43:47.527Z,9.52
2023-11-14T01:44:50.244Z,9.52
2023-11-14T01:45:53.151Z,9.53
2023-11-14T01:46:56.094Z,9.54
2023-11-14T01:47:59.542Z,9.54
2023-11-14T01:49:02.265Z,9.54
2023-11-14T01:50:06.996Z,9.54
2023-11-14T01:51:10.710Z,9.53
2023-11-14T01:52:15.771Z,9.53
2023-11-14T01:53:18.631Z,9.53
2023-11-14T01:54:21.575Z,9.54
2023-11-14T01:55:27.162Z,9.54
2023-11-14T01:56:30.391Z,9.54
2023-11-14T01:57:34.790Z,9.54
2023-11-14T01:58:40.899Z,9.54
2023-11-14T01:59:48.334Z,9.54
2023-11-14T02:00:51.917Z,9.54
2023-11-14T02:01:54.797Z,9.54
2023-11-14T02:02:58.594Z,9.55
2023-11-14T02:04:05.269Z,9.55
2023-11-14T02:05:08.486Z,9.55
2023-11-14T02:06:11.380Z,9.55
2023-11-14T02:07:14.288Z,9.55
2023-11-14T02:08:17.805Z,9.55
2023-11-14T02:09:22.201Z,9.54
2023-11-14T02:10:25.058Z,9.54
2023-11-14T02:11:27.763Z,9.54
2023-11-14T02:12:30.492Z,9.54
2023-11-14T02:13:34.883Z,9.54
2023-11-14T02:14:37.712Z,9.53
2023-11-14T02:15:40.578Z,9.53
2023-11-14T02:16:51.577Z,9.53
2023-11-14T02:17:56.256Z,9.53
2023-11-14T02:18:59.093Z,9.54
2023-11-14T02:20:01.839Z,9.54
2023-11-14T02:21:04.781Z,9.54
2023-11-14T02:22:07.541Z,9.53
2023-11-14T02:23:12.636Z,9.53
2023-11-14T02:24:19.370Z,9.52
2023-11-14T02:25:22.173Z,9.52
2023-11-14T02:26:24.968Z,9.52
2023-11-14T02:27:27.871Z,9.53
2023-11-14T02:28:30.681Z,9.53
2023-11-14T02:29:35.626Z,9.53
2023-11-14T02:30:39.143Z,9.53
2023-11-14T02:31:42.530Z,9.53
2023-11-14T02:32:45.299Z,9.54
2023-11-14T02:33:48.062Z,9.54
2023-11-14T02:34:53.960Z,9.54
2023-11-14T02:35:56.779Z,9.54
2023-11-14T02:36:59.477Z,9.54
2023-11-14T02:38:02.771Z,9.54
2023-11-14T02:39:05.957Z,9.54
2023-11-14T02:40:10.076Z,9.54
2023-11-14T02:41:16.252Z,9.53
2023-11-14T02:42:20.124Z,9.45
2023-11-14T02:43:23.030Z,9.46
2023-11-14T02:44:27.876Z,9.47
2023-11-14T02:45:30.794Z,9.48
2023-11-14T02:46:33.930Z,9.49
2023-11-14T02:47:36.953Z,9.50
2023-11-14T02:48:39.890Z,9.51
2023-11-14T02:50:18.714Z,9.52
2023-11-14T02:51:23.938Z,9.55
2023-11-14T02:52:26.783Z,9.56
2023-11-14T02:53:29.778Z,9.57
2023-11-14T02:54:32.647Z,9.58
2023-11-14T02:55:35.531Z,9.58
2023-11-14T02:56:38.338Z,9.60
2023-11-14T02:57:41.086Z,9.62
2023-11-14T02:58:43.838Z,9.63
2023-11-14T02:59:49.381Z,9.65
2023-11-14T03:00:53.028Z,9.67
2023-11-14T03:01:56.154Z,9.68
2023-11-14T03:02:58.948Z,9.69
2023-11-14T03:04:02.050Z,9.71
2023-11-14T03:05:05.073Z,9.73
2023-11-14T03:06:08.583Z,9.75
2023-11-14T03:07:11.358Z,9.77
2023-11-14T03:08:14.535Z,9.79
2023-11-14T03:09:18.148Z,9.81
2023-11-14T03:10:21.377Z,9.83
2023-11-14T03:11:24.072Z,9.85
2023-11-14T03:12:26.795Z,9.86
2023-11-14T03:13:29.483Z,9.87
2023-11-14T03:14:32.233Z,9.89
2023-11-14T03:15:34.993Z,9.90
2023-11-14T03:16:38.210Z,9.91
2023-11-14T03:17:41.247Z,9.92
2023-11-14T03:18:43.927Z,9.93
2023-11-14T03:19:46.812Z,9.94
2023-11-14T03:20:49.530Z,9.95
2023-11-14T03:21:52.493Z,9.96
2023-11-14T03:22:56.716Z,9.97
2023-11-14T03:23:59.475Z,9.98
2023-11-14T03:25:02.712Z,10.00
2023-11-14T03:26:05.599Z,10.01
2023-11-14T03:27:11.636Z,10.02
2023-11-14T03:28:14.578Z,10.03
2023-11-14T03:29:17.276Z,10.04
2023-11-14T03:30:20.435Z,10.05
2023-11-14T03:31:24.074Z,10.06
2023-11-14T03:32:26.994Z,10.07
2023-11-14T03:33:29.755Z,10.08
2023-11-14T03:34:32.517Z,10.09
2023-11-14T03:35:35.254Z,10.10
2023-11-14T03:36:38.117Z,10.11
2023-11-14T03:37:40.982Z,10.12
2023-11-14T03:38:43.733Z,10.13
2023-11-14T03:39:46.457Z,10.14
2023-11-14T03:40:49.215Z,10.15
2023-11-14T03:41:51.997Z,10.16
2023-11-14T03:42:54.721Z,10.16
2023-11-14T03:43:57.569Z,10.17
2023-11-14T03:45:00.872Z,10.18
2023-11-14T03:46:06.285Z,10.19
2023-11-14T03:47:09.064Z,10.19
2023-11-14T03:48:11.856Z,10.20
2023-11-14T03:49:14.694Z,10.21
2023-11-14T03:50:17.603Z,10.21
2023-11-14T03:51:21.506Z,10.22
2023-11-14T03:52:26.952Z,10.22
2023-11-14T03:53:30.237Z,10.22
2023-11-14T03:54:33.428Z,10.22
2023-11-14T03:55:36.976Z,10.21
2023-11-14T03:56:39.741Z,10.20
2023-11-14T03:57:42.432Z,10.19
2023-11-14T03:58:45.188Z,10.17
2023-11-14T03:59:48.077Z,10.17
2023-11-14T04:00:50.880Z,10.17
2023-11-14T04:01:53.793Z,10.17
2023-11-14T04:02:56.625Z,10.16
2023-11-14T04:03:59.594Z,10.16
2023-11-14T04:05:02.432Z,10.15
2023-11-14T04:06:05.463Z,10.14
2023-11-14T04:07:08.162Z,10.13
2023-11-14T04:08:10.926Z,10.13
2023-11-14T04:09:14.032Z,10.13
2023-11-14T04:10:16.990Z,10.13
2023-11-14T04:11:19.995Z,10.13
2023-11-14T04:12:25.863Z,10.14
2023-11-14T04:13:28.695Z,10.14
2023-11-14T04:14:31.618Z,10.14
2023-11-14T04:15:34.343Z,10.15
2023-11-14T04:16:37.034Z,10.15
2023-11-14T04:17:39.836Z,10.15
2023-11-14T04:18:43.472Z,10.16
2023-11-14T04:19:46.361Z,10.16
2023-11-14T04:20:49.103Z,10.17
2023-11-14T04:21:51.834Z,10.17
2023-11-14T04:22:54.703Z,10.18
2023-11-14T04:23:57.421Z,10.19
2023-11-14T04:25:00.692Z,10.20
2023-11-14T04:26:03.892Z,10.21
2023-11-14T04:27:06.690Z,10.21
2023-11-14T04:28:09.782Z,10.22
2023-11-14T04:29:15.088Z,10.23
2023-11-14T04:30:17.937Z,10.24
2023-11-14T04:31:20.718Z,10.25
2023-11-14T04:32:23.610Z,10.25
2023-11-14T04:33:26.421Z,10.26
2023-11-14T04:34:29.210Z,10.27
2023-11-14T04:35:31.952Z,10.27
2023-11-14T04:36:35.621Z,10.28
2023-11-14T04:37:38.554Z,10.29
2023-11-14T04:38:41.308Z,10.29
2023-11-14T04:39:44.077Z,10.30
2023-11-14T04:40:46.887Z,10.31
2023-11-14T04:41:49.662Z,10.32
2023-11-14T04:42:53.269Z,10.33
2023-11-14T04:43:55.999Z,10.34
2023-11-14T04:44:58.708Z,10.35
2023-11-14T04:46:01.473Z,10.35
2023-11-14T04:47:04.693Z,10.36
2023-11-14T04:48:07.757Z,10.36
2023-11-14T04:49:10.743Z,10.37
2023-11-14T04:50:15.966Z,10.38
2023-11-14T04:51:19.135Z,10.39
2023-11-14T04:52:22.361Z,10.40
2023-11-14T04:53:25.123Z,10.40
2023-11-14T04:54:27.870Z,10.40
2023-11-14T04:55:31.116Z,10.41
2023-11-14T04:56:35.598Z,10.41
2023-11-14T04:57:38.460Z,10.41
2023-11-14T04:58:43.248Z,10.41
2023-11-14T04:59:46.127Z,10.41
2023-11-14T05:00:50.589Z,10.41
2023-11-14T05:01:53.451Z,10.42
2023-11-14T05:02:56.490Z,10.43
2023-11-14T05:03:59.406Z,10.44
2023-11-14T05:05:02.244Z,10.45
2023-11-14T05:06:06.112Z,10.45
2023-11-14T05:07:08.950Z,10.46
2023-11-14T05:08:11.725Z,10.47
2023-11-14T05:09:14.747Z,10.47
2023-11-14T05:10:20.384Z,10.47
2023-11-14T05:11:23.517Z,10.48
2023-11-14T05:12:26.480Z,10.48
2023-11-14T05:13:30.147Z,10.48
2023-11-14T05:14:32.835Z,10.49
2023-11-14T05:15:35.588Z,10.49
2023-11-14T05:16:42.469Z,10.50
2023-11-14T05:17:46.035Z,10.51
2023-11-14T05:18:48.877Z,10.52
2023-11-14T05:19:52.374Z,10.53
2023-11-14T05:20:55.159Z,10.53
2023-11-14T05:21:57.905Z,10.55
2023-11-14T05:23:00.766Z,10.58
2023-11-14T05:24:03.577Z,10.60
2023-11-14T05:25:12.505Z,10.62
2023-11-14T05:26:15.267Z,10.66
2023-11-14T05:27:18.014Z,10.68
2023-11-14T05:28:20.755Z,10.71
2023-11-14T05:29:23.597Z,10.76
2023-11-14T05:30:26.352Z,10.79
2023-11-14T05:31:29.104Z,10.83
2023-11-14T05:32:31.868Z,10.87
2023-11-14T05:33:34.687Z,10.91
2023-11-14T05:34:37.490Z,10.94
2023-11-14T05:35:40.792Z,10.99
2023-11-14T05:36:43.997Z,11.05
2023-11-14T05:37:47.004Z,11.10
2023-11-14T05:38:50.028Z,11.15
2023-11-14T05:39:52.723Z,11.20
2023-11-14T05:40:56.806Z,11.25
2023-11-14T05:41:59.640Z,11.29
2023-11-14T05:43:04.090Z,11.34
2023-11-14T05:44:06.997Z,11.37
2023-11-14T05:45:10.422Z,11.41
2023-11-14T05:46:13.208Z,11.44
2023-11-14T05:47:16.684Z,11.47
2023-11-14T05:48:22.744Z,11.50
2023-11-14T05:49:25.534Z,11.54
2023-11-14T05:50:28.253Z,11.58
2023-11-14T05:51:32.322Z,11.61
2023-11-14T05:52:35.501Z,11.64
2023-11-14T05:53:38.288Z,11.67
2023-11-14T05:54:41.047Z,11.70
2023-11-14T05:55:43.876Z,11.73
2023-11-14T05:56:46.772Z,11.76
2023-11-14T05:57:49.509Z,11.78
2023-11-14T05:58:52.283Z,11.80
2023-11-14T05:59:57.011Z,11.81
2023-11-14T06:00:59.787Z,11.84
2023-11-14T06:02:02.675Z,11.86
2023-11-14T06:03:05.728Z,11.88
2023-11-14T06:04:08.911Z,11.90
2023-11-14T06:05:11.840Z,11.92
2023-11-14T06:06:14.644Z,11.94
2023-11-14T06:07:17.659Z,11.96
2023-11-14T06:08:23.701Z,11.98
2023-11-14T06:09:26.862Z,11.99
2023-11-14T06:10:29.802Z,12.01
2023-11-14T06:11:32.844Z,12.03
2023-11-14T06:12:35.811Z,12.05
2023-11-14T06:13:38.602Z,12.08
2023-11-14T06:14:41.421Z,12.11
2023-11-14T06:15:44.170Z,12.13
2023-11-14T06:16:47.754Z,12.15
2023-11-14T06:17:50.536Z,12.17
2023-11-14T06:18:53.344Z,12.19
2023-11-14T06:19:56.167Z,12.21
2023-11-14T06:21:02.088Z,12.23
2023-11-14T06:22:06.053Z,12.25
2023-11-14T06:23:08.888Z,12.28
2023-11-14T06:24:11.634Z,12.29
2023-11-14T06:25:14.387Z,12.30
2023-11-14T06:26:17.147Z,12.32
2023-11-14T06:27:19.926Z,12.33
2023-11-14T06:28:22.606Z,12.35
2023-11-14T06:29:26.038Z,12.36
2023-11-14T06:30:33.690Z,12.37
2023-11-14T06:31:36.466Z,12.37
2023-11-14T06:32:39.403Z,12.38
2023-11-14T06:33:42.186Z,12.39
2023-11-14T06:34:44.906Z,12.40
2023-11-14T06:35:48.881Z,12.41
2023-11-14T06:36:51.712Z,12.42
2023-11-14T06:37:54.703Z,12.43
2023-11-14T06:38:57.449Z,12.43
2023-11-14T06:40:00.285Z,12.45
2023-11-14T06:41:03.030Z,12.46
2023-11-14T06:42:08.846Z,12.48
2023-11-14T06:43:11.514Z,12.50
2023-11-14T06:44:14.365Z,12.51
2023-11-14T06:45:17.140Z,12.52
2023-11-14T06:46:19.879Z,12.53
2023-11-14T06:47:22.654Z,12.54
2023-11-14T06:48:25.477Z,12.56
2023-11-14T06:49:28.234Z,12.57
2023-11-14T06:50:41.032Z,12.59
2023-11-14T06:51:46.899Z,12.60
2023-11-14T06:52:49.757Z,12.62
2023-11-14T06:53:52.548Z,12.64
2023-11-14T06:54:55.988Z,12.66
2023-11-14T06:56:00.136Z,12.67
2023-11-14T06:57:03.013Z,12.69
2023-11-14T06:58:06.267Z,12.70
2023-11-14T06:59:09.145Z,12.72
2023-11-14T07:00:12.516Z,12.73
2023-11-14T07:01:15.311Z,12.75
2023-11-14T07:02:18.433Z,12.76
2023-11-14T07:03:21.339Z,12.77
2023-11-14T07:04:24.288Z,12.77
2023-11-14T07:05:27.184Z,12.79
2023-11-14T07:06:30.957Z,12.80
2023-11-14T07:07:33.797Z,12.82
2023-11-14T07:08:36.641Z,12.84
2023-11-14T07:09:39.390Z,12.86
2023-11-14T07:10:42.159Z,12.87
2023-11-14T07:11:45.850Z,12.88
2023-11-14T07:12:48.582Z,12.90
2023-11-14T07:13:52.387Z,12.91
2023-11-14T07:14:55.101Z,12.93
2023-11-14T07:15:57.943Z,12.94
2023-11-14T07:17:00.851Z,12.95
2023-11-14T07:18:03.965Z,12.97
2023-11-14T07:19:07.967Z,12.99
2023-11-14T07:20:12.085Z,12.99
2023-11-14T07:21:15.298Z,12.99
2023-11-14T07:22:18.448Z,13.00
2023-11-14T07:23:22.189Z,13.00
2023-11-14T07:24:26.452Z,13.01
2023-11-14T07:25:30.330Z,13.01
2023-11-14T07:26:33.233Z,13.02
2023-11-14T07:27:36.490Z,13.02
2023-11-14T07:28:39.384Z,13.02
2023-11-14T07:29:42.964Z,13.02
2023-11-14T07:30:49.259Z,13.03
2023-11-14T07:31:53.885Z,13.04
2023-11-14T07:32:57.519Z,13.05
2023-11-14T07:34:00.261Z,13.06
2023-11-14T07:35:03.955Z,13.07
2023-11-14T07:36:07.391Z,13.08
2023-11-14T07:37:10.443Z,13.10
2023-11-14T07:38:13.245Z,13.12
2023-11-14T07:39:17.913Z,13.13
2023-11-14T07:40:23.589Z,13.15
2023-11-14T07:41:26.851Z,13.17
2023-11-14T07:42:32.048Z,13.18
2023-11-14T07:43:34.852Z,13.19
2023-11-14T07:44:37.767Z,13.20
2023-11-14T07:45:41.985Z,13.21
2023-11-14T07:46:46.034Z,13.23
2023-11-14T07:47:49.490Z,13.24
2023-11-14T07:48:52.486Z,13.26
2023-11-14T07:49:56.128Z,13.26
2023-11-14T07:50:59.135Z,13.27
2023-11-14T07:52:01.866Z,13.28
2023-11-14T07:53:05.683Z,13.29
2023-11-14T07:54:08.534Z,13.31
2023-11-14T07:55:12.585Z,13.32
2023-11-14T07:56:15.950Z,13.34
2023-11-14T07:57:18.926Z,13.36
2023-11-14T07:58:21.708Z,13.38
2023-11-14T07:59:24.482Z,13.39
2023-11-14T08:00:27.929Z,13.40
2023-11-14T08:01:31.076Z,13.41
2023-11-14T08:02:34.273Z,13.43
2023-11-14T08:03:37.898Z,13.44
2023-11-14T08:04:41.961Z,13.45
2023-11-14T08:05:44.726Z,13.46
2023-11-14T08:06:47.448Z,13.46
2023-11-14T08:07:50.180Z,13.47
2023-11-14T08:08:57.587Z,13.49
2023-11-14T08:10:00.364Z,13.50
2023-11-14T08:11:03.599Z,13.51
2023-11-14T08:12:08.281Z,13.52
2023-11-14T08:13:11.122Z,13.52
2023-11-14T08:14:13.896Z,13.54
2023-11-14T08:15:17.671Z,13.54
2023-11-14T08:16:20.422Z,13.55
2023-11-14T08:17:23.286Z,13.56
2023-11-14T08:18:26.266Z,13.56
2023-11-14T08:19:29.084Z,13.58
2023-11-14T08:20:31.971Z,13.59
2023-11-14T08:21:36.170Z,13.60
2023-11-14T08:22:38.903Z,13.60
2023-11-14T08:23:44.932Z,13.61
2023-11-14T08:24:47.647Z,13.62
2023-11-14T08:25:51.984Z,13.63
2023-11-14T08:26:54.799Z,13.64
2023-11-14T08:27:57.676Z,13.65
2023-11-14T08:29:00.463Z,13.67
2023-11-14T08:30:07.350Z,13.68
2023-11-14T08:31:10.430Z,13.69
2023-11-14T08:32:17.035Z,13.70
2023-11-14T08:33:20.193Z,13.71
2023-11-14T08:34:23.530Z,13.72
2023-11-14T08:35:26.546Z,13.73
2023-11-14T08:36:29.359Z,13.75
2023-11-14T08:37:33.049Z,13.76
2023-11-14T08:38:38.851Z,13.78
2023-11-14T08:39:42.017Z,13.79
2023-11-14T08:40:44.853Z,13.80
2023-11-14T08:41:47.892Z,13.82
2023-11-14T08:42:52.917Z,13.84
2023-11-14T08:43:55.715Z,13.85
2023-11-14T08:44:59.270Z,13.86
2023-11-14T08:46:02.255Z,13.87
2023-11-14T08:47:05.556Z,13.90
2023-11-14T08:48:09.649Z,13.91
2023-11-14T08:49:12.949Z,13.93
2023-11-14T08:50:17.988Z,13.94
2023-11-14T08:51:24.043Z,13.94
2023-11-14T08:52:27.403Z,13.96
2023-11-14T08:53:30.203Z,13.97
2023-11-14T08:54:34.102Z,13.99
2023-11-14T08:55:37.111Z,14.00
2023-11-14T08:56:40.171Z,14.02
2023-11-14T08:57:45.056Z,14.03
2023-11-14T08:58:50.333Z,14.05
2023-11-14T08:59:55.023Z,14.06
2023-11-14T09:00:59.881Z,14.07
2023-11-14T09:02:04.362Z,14.08
2023-11-14T09:03:07.363Z,14.09
2023-11-14T09:04:13.795Z,14.10
2023-11-14T09:05:16.737Z,14.11
2023-11-14T09:06:19.604Z,14.12
2023-11-14T09:07:22.428Z,14.13
2023-11-14T09:08:27.907Z,14.14
2023-11-14T09:09:30.704Z,14.16
2023-11-14T09:10:33.471Z,14.17
2023-11-14T09:11:38.398Z,14.18
2023-11-14T09:12:41.384Z,14.20
2023-11-14T09:13:45.619Z,14.22
2023-11-14T09:14:48.407Z,14.27
2023-11-14T09:15:51.180Z,14.30
2023-11-14T09:16:54.975Z,14.33
2023-11-14T09:17:58.681Z,14.38
2023-11-14T09:19:03.412Z,14.42
2023-11-14T09:20:06.911Z,14.46
2023-11-14T09:21:11.464Z,14.50
2023-11-14T09:22:14.283Z,14.54
2023-11-14T09:23:17.083Z,14.57
2023-11-14T09:24:20.024Z,14.60
2023-11-14T09:25:22.739Z,14.64
2023-11-14T09:26:25.758Z,14.65
2023-11-14T09:27:28.533Z,14.67
2023-11-14T09:28:32.148Z,14.69
2023-11-14T09:29:35.160Z,14.71
2023-11-14T09:30:38.174Z,14.73
2023-11-14T09:31:40.952Z,14.75
2023-11-14T09:32:43.744Z,14.77
2023-11-14T09:33:47.931Z,14.79
2023-11-14T09:34:51.593Z,14.81
2023-11-14T09:35:54.326Z,14.83
2023-11-14T09:36:58.612Z,14.83
2023-11-14T09:38:02.220Z,14.85
2023-11-14T09:39:06.912Z,14.86
2023-11-14T09:40:23.265Z,14.86
2023-11-14T09:41:28.776Z,14.85
2023-11-14T09:42:31.989Z,14.85
2023-11-14T09:43:35.611Z,14.85
2023-11-14T09:44:39.242Z,14.85
2023-11-14T09:45:42.820Z,14.84
2023-11-14T09:46:50.476Z,14.82
2023-11-14T09:47:56.059Z,14.80
2023-11-14T09:48:59.011Z,14.78
2023-11-14T09:50:01.808Z,14.73
2023-11-14T09:51:07.641Z,14.68
2023-11-14T09:52:14.024Z,14.64
2023-11-14T09:53:22.075Z,14.60
2023-11-14T09:54:25.077Z,14.55
2023-11-14T09:55:27.925Z,14.53
2023-11-14T09:56:30.839Z,14.49
2023-11-14T09:57:37.761Z,14.45
2023-11-14T09:58:40.755Z,14.41
2023-11-14T09:59:44.328Z,14.38
2023-11-14T10:00:47.749Z,14.36
2023-11-14T10:01:50.514Z,14.33
2023-11-14T10:02:53.398Z,14.30
2023-11-14T10:03:57.352Z,14.26
2023-11-14T10:05:07.103Z,14.23
2023-11-14T10:06:16.164Z,14.21
2023-11-14T10:07:21.314Z,14.19
2023-11-14T10:08:25.566Z,14.17
2023-11-14T10:09:29.204Z,14.15
2023-11-14T10:10:33.194Z,14.14
2023-11-14T10:12:57.528Z,14.11
2023-11-14T10:14:05.527Z,14.10
2023-11-14T10:15:09.131Z,14.09
2023-11-14T10:16:18.281Z,14.08
2023-11-14T10:17:22.061Z,14.07
2023-11-14T10:18:31.365Z,14.06
2023-11-14T10:19:34.200Z,14.06
2023-11-14T10:21:46.419Z,14.05
2023-11-14T10:23:07.768Z,14.06
2023-11-14T10:24:15.292Z,14.05
2023-11-14T10:25:34.028Z,14.05
2023-11-14T10:26:57.631Z,14.04
2023-11-14T10:28:05.691Z,14.04
2023-11-14T10:29:08.699Z,14.04
2023-11-14T10:30:12.291Z,14.05
2023-11-14T10:31:17.226Z,14.05
2023-11-14T10:32:20.716Z,14.06
2023-11-14T10:33:30.962Z,14.07
2023-11-14T10:34:37.478Z,14.08
2023-11-14T10:35:42.319Z,14.10
2023-11-14T10:36:50.794Z,14.10
2023-11-14T10:37:53.534Z,14.10
2023-11-14T10:39:05.143Z,14.11
2023-11-14T10:40:09.318Z,14.13
2023-11-14T10:41:12.808Z,14.14
2023-11-14T10:42:15.743Z,14.15
2023-11-14T10:43:33.398Z,14.16
2023-11-14T10:44:36.202Z,14.19
2023-11-14T10:45:40.258Z,14.21
2023-11-14T10:46:54.216Z,14.22
2023-11-14T10:47:58.483Z,14.25
2023-11-14T10:49:04.484Z,14.26
2023-11-14T10:50:24.424Z,14.27
2023-11-14T10:51:28.136Z,14.30
2023-11-14T10:52:33.809Z,14.40
2023-11-14T10:53:36.766Z,14.67
2023-11-14T10:54:39.972Z,14.89
2023-11-14T10:55:46.561Z,15.04
2023-11-14T10:56:57.458Z,15.30
2023-11-14T10:58:02.015Z,15.77
2023-11-14T10:59:11.868Z,16.01
2023-11-14T11:00:14.899Z,16.13
2023-11-14T11:01:18.689Z,16.16
2023-11-14T11:02:23.839Z,16.24
2023-11-14T11:03:28.155Z,16.55
2023-11-14T11:04:31.276Z,16.84
2023-11-14T11:05:34.105Z,16.98
2023-11-14T11:06:37.689Z,17.17
2023-11-14T11:07:40.939Z,17.42
2023-11-14T11:08:43.697Z,17.76
2023-11-14T11:09:47.022Z,17.88
2023-11-14T11:10:52.873Z,18.03
2023-11-14T11:11:59.642Z,18.30
2023-11-14T11:13:09.540Z,18.51
2023-11-14T11:14:15.411Z,18.66
2023-11-14T11:15:18.381Z,18.71
2023-11-14T11:16:40.440Z,18.74
2023-11-14T11:17:45.613Z,18.90
2023-11-14T11:18:49.303Z,18.97
2023-11-14T11:19:55.730Z,18.98
2023-11-14T11:21:14.535Z,18.98
2023-11-14T11:22:18.936Z,19.05
2023-11-14T11:23:22.905Z,19.10
2023-11-14T11:24:36.899Z,19.14
2023-11-14T11:25:49.183Z,19.14
2023-11-14T11:27:13.568Z,19.18
2023-11-14T11:28:22.756Z,19.32
2023-11-14T11:29:45.956Z,19.43
2023-11-14T11:31:08.771Z,19.53
2023-11-14T11:32:31.619Z,19.68
2023-11-14T11:33:37.573Z,19.81
2023-11-14T11:34:41.559Z,19.88
2023-11-14T11:35:46.926Z,19.94
2023-11-14T11:36:49.674Z,19.97
2023-11-14T11:37:58.933Z,19.98
2023-11-14T11:39:07.376Z,20.01
2023-11-14T11:40:12.461Z,20.03
2023-11-14T11:41:19.078Z,20.04
2023-11-14T11:42:31.372Z,19.99
2023-11-14T11:43:37.873Z,19.82
2023-11-14T11:44:42.574Z,19.62
2023-11-14T11:45:51.008Z,19.60
2023-11-14T11:46:54.096Z,19.58
2023-11-14T11:48:00.915Z,19.57
2023-11-14T11:49:29.728Z,19.57
2023-11-14T11:50:36.189Z,19.58
2023-11-14T11:51:48.300Z,19.60
2023-11-14T11:53:08.361Z,19.62
2023-11-14T11:54:30.408Z,19.64
2023-11-14T11:55:38.420Z,19.69
2023-11-14T11:56:41.279Z,19.75
2023-11-14T11:57:48.090Z,19.81
2023-11-14T11:58:50.860Z,19.85
2023-11-14T11:59:54.306Z,19.90
2023-11-14T12:01:08.352Z,19.87
2023-11-14T12:02:16.334Z,19.77
2023-11-14T12:03:20.351Z,19.61
2023-11-14T12:04:24.170Z,19.48
2023-11-14T12:05:32.829Z,19.25
2023-11-14T12:06:36.864Z,18.91
2023-11-14T12:07:41.083Z,18.71
2023-11-14T12:08:43.844Z,18.53
2023-11-14T12:09:47.372Z,18.39
2023-11-14T12:10:51.290Z,18.27
2023-11-14T12:11:54.052Z,18.12
2023-11-14T12:12:58.564Z,17.97
2023-11-14T12:14:02.065Z,17.88
2023-11-14T12:15:06.845Z,17.79
2023-11-14T12:16:09.599Z,17.67
2023-11-14T12:17:12.576Z,17.58
2023-11-14T12:18:15.497Z,17.49
2023-11-14T12:19:18.217Z,17.38
2023-11-14T12:20:26.103Z,17.30
2023-11-14T12:21:30.233Z,17.22
2023-11-14T12:22:33.004Z,17.14
2023-11-14T12:23:35.810Z,17.10
2023-11-14T12:24:38.711Z,17.02
2023-11-14T12:25:42.098Z,16.96
2023-11-14T12:26:45.433Z,16.90
2023-11-14T12:28:00.927Z,16.82
2023-11-14T12:29:08.984Z,16.73
2023-11-14T12:30:14.526Z,16.69
2023-11-14T12:31:27.457Z,16.65
2023-11-14T12:32:30.499Z,16.61
2023-11-14T12:33:53.936Z,16.58
2023-11-14T12:35:00.439Z,16.54
2023-11-14T12:36:06.193Z,16.51
2023-11-14T12:37:16.062Z,16.47
2023-11-14T12:38:32.760Z,16.43
2023-11-14T12:39:35.582Z,16.38
2023-11-14T12:40:38.715Z,16.37
2023-11-14T12:41:49.002Z,16.35
2023-11-14T12:42:52.088Z,16.36
2023-11-14T12:44:02.647Z,16.37
2023-11-14T12:45:11.179Z,16.33
2023-11-14T12:46:22.347Z,16.30
2023-11-14T12:47:26.083Z,16.28
2023-11-14T12:48:28.933Z,16.26
2023-11-14T12:49:33.430Z,16.24
2023-11-14T12:50:36.478Z,16.22
2023-11-14T12:51:40.704Z,16.19
2023-11-14T12:52:44.024Z,16.16
2023-11-14T12:53:46.770Z,16.12
2023-11-14T12:54:49.479Z,16.07
2023-11-14T12:55:52.166Z,16.05
2023-11-14T12:56:57.192Z,16.01
2023-11-14T12:57:59.894Z,15.99
2023-11-14T12:59:06.776Z,15.95
2023-11-14T13:00:13.726Z,15.93
2023-11-14T13:01:16.703Z,15.91
2023-11-14T13:02:19.630Z,15.89
2023-11-14T13:03:22.447Z,15.87
2023-11-14T13:04:28.178Z,15.86
2023-11-14T13:05:31.014Z,15.84
2023-11-14T13:06:39.249Z,15.82
2023-11-14T13:07:42.423Z,15.81
2023-11-14T13:08:49.361Z,15.79
2023-11-14T13:09:52.529Z,15.78
2023-11-14T13:10:55.318Z,15.77
2023-11-14T13:11:58.118Z,15.76
2023-11-14T13:13:01.508Z,15.74
2023-11-14T13:14:05.216Z,15.73
2023-11-14T13:15:08.198Z,15.70
2023-11-14T13:16:11.047Z,15.68
2023-11-14T13:17:14.225Z,15.64
2023-11-14T13:18:17.003Z,15.63
2023-11-14T13:19:19.836Z,15.62
2023-11-14T13:20:22.609Z,15.61
2023-11-14T13:21:26.029Z,15.60
2023-11-14T13:22:33.771Z,15.59
2023-11-14T13:23:40.196Z,15.58
2023-11-14T13:24:42.964Z,15.56
2023-11-14T13:25:45.699Z,15.55
2023-11-14T13:26:48.971Z,15.51
2023-11-14T13:27:51.984Z,15.48
2023-11-14T13:28:55.465Z,15.47
2023-11-14T13:29:58.267Z,15.45
2023-11-14T13:31:01.683Z,15.45
2023-11-14T13:32:04.820Z,15.44
2023-11-14T13:33:07.887Z,15.44
2023-11-14T13:34:10.730Z,15.44
2023-11-14T13:35:14.838Z,15.46
2023-11-14T13:36:19.810Z,15.47
2023-11-14T13:37:22.661Z,15.47
2023-11-14T13:38:28.302Z,15.47
2023-11-14T13:39:31.515Z,15.46
2023-11-14T13:40:34.500Z,15.47
2023-11-14T13:42:43.964Z,15.50
2023-11-14T13:43:47.162Z,15.52
2023-11-14T13:44:50.481Z,15.53
2023-11-14T13:45:53.300Z,15.53
2023-11-14T13:46:56.960Z,15.53
2023-11-14T13:48:00.165Z,15.54
2023-11-14T13:49:04.101Z,15.53
2023-11-14T13:50:11.597Z,15.53
2023-11-14T13:51:14.424Z,15.52
2023-11-14T13:52:17.109Z,15.52
2023-11-14T13:53:19.915Z,15.52
2023-11-14T13:54:28.480Z,15.51
2023-11-14T13:55:31.193Z,15.51
2023-11-14T13:56:34.110Z,15.51
2023-11-14T13:57:36.878Z,15.51